ALTO2: Altus Lake, OK

                                SHEF ID:       ALTO2     Altus Lake
STATION TYPE: Reservoir
Flood Pool: Bottom = 1559.00, Top = 1562.00

PRECIP ELEVATION STORAGE INFLOW RELEASE VOLTAGE BAT-LOAD
in ft ac-ft cfs cfs volt volt
Ccp-Rev Ccp-Rev Ccp-Rev Rev-Regi Rev-Regi Ccp-Rev Ccp-Rev
(America/Chicago)
04/03 00:00 0.00 1537.00 34237 0 0 ---- 12.25
04/03 01:00 0.00 1537.01 34265 0 0 ---- 12.25
04/03 02:00 0.00 1537.01 34265 0 0 ---- 12.25
04/03 03:00 0.00 1537.03 34323 0 0 ---- 12.17
04/03 04:00 0.00 1537.05 34380 0 0 ---- 12.17
04/03 05:00 0.00 1537.05 34380 0 0 ---- 12.17
04/03 06:00 0.00 1537.05 34380 0 0 ---- 12.17
04/03 07:00 0.00 1537.05 34380 66 0 ---- 12.17
04/03 08:00 0.00 1537.01 34265 132 0 ---- 12.09
04/03 09:00 0.00 1537.03 34323 132 0 ---- 12.17
04/03 10:00 0.00 1537.05 34380 231 0 ---- 12.41
04/03 11:00 0.00 1537.05 34380 231 0 ---- 12.81
04/03 12:00 0.00 1537.08 34466 181 0 ---- 13.05
04/03 13:00 0.00 1537.07 34437 132 0 ---- 13.13
04/03 14:00 0.00 1537.06 34409 132 0 ---- 13.05
04/03 15:00 0.00 1537.08 34466 99 0 ---- 12.89
04/03 16:00 0.00 1537.08 34466 165 0 ---- 12.73
04/03 17:00 0.00 1537.04 34351 214 0 ---- 12.73
04/03 18:00 0.00 1537.10 34523 264 0 ---- 12.65
04/03 19:00 0.24 1537.18 34754 1059 0 ---- 12.41
04/03 20:00 1.11 1537.12 34581 1554 0 ---- 12.25
04/03 21:00 0.19 1537.24 34927 2283 0 ---- 12.25
04/03 22:00 0.01 1537.32 35158 2542 0 ---- 12.25
04/03 23:00 ---- ---- ---- ---- ---- ---- ----
Data processed at Sat 04Apr2026 04:34 GMT

NOTICE: If you are parsing this page

Please convert to using our Data API. Starting early 2026 we will be migrating to: https://water.usace.army.mil with modern pages rendered in JavaScript. When this migration completes you will no longer be able to scrape this page! CWMSDataAPI (CDA)

Timeseries IDs (TSIDs)

TSIDs used from left to right in the data table
ALTU.Precip-Inc.Total.1Hour.1Hour.Ccp-Rev
ALTU.Elev.Inst.1Hour.0.Ccp-Rev
ALTU.Stor.Inst.1Hour.0.Ccp-Rev
ALTU.Flow-Res In.Ave.1Hour.1Hour.Rev-Regi-Computed
ALTU.Flow-Res Out.Ave.1Hour.1Hour.Rev-Regi-Flowgroup
ALTU.Volt-Battery.Inst.1Hour.0.Ccp-Rev
ALTU.Volt-Battery Load.Inst.1Hour.0.Ccp-Rev

                            

All information presented herein is the property of the government of the United States of America and may be revised or deleted at any time without prior notice. Dissemination of this information without the expressed written consent of the Public Affairs Office, Tulsa District U.S. Army Corps of Engineers is strictly prohibited. These data are gathered electronically and, as presented, have NOT undergone any form of quality control. These data are NOT guaranteed to be valid or correct.